Impacts METAR Board
IDs:

KIAH - Houston/Bush Intl, TX, US

Updated at: 1500 UTC 20 Aug 2019
Potential Impact None Slight Moderate High
Time 20/03Z 20/04Z 20/05Z 20/06Z 20/07Z 20/08Z 20/09Z 20/10Z 20/11Z 20/12Z 20/13Z 20/14Z 20/15Z
Temp85 85 84 83 83 82 80 81 79 79 81 88 88
Dewpt76 76 76 76 76 76 76 76 76 76 77 77 75
Altim29.99 30.01 30.01 29.99 29.98 29.98 29.99 29.99 30.00 30.02 30.03 30.04 30.04
VIS10 10 10 10 10 10 10 8 9 7 7 10 10
CIG250 -- -- -- -- -- -- -- -- -- -- -- 20
CoverBKNSCTFEWFEWFEWFEWFEWFEWFEWFEWSCTSCTBKN
FltCatVFRVFRVFRVFRVFRVFRVFRVFRVFRVFRVFRVFRMVFR
WX--------------------------
WDir17017017019018019018000000240
WSpd6 6 5 4 3 3 4 0 0 0 0 0 5
WGst-- -- -- -- -- -- -- -- -- -- -- -- --
Raw hourly METARs
KIAH 200253Z 17006KT 10SM FEW180 BKN250 29/24 A2999 RMK AO2 SLP153 T02940244 53014
KIAH 200353Z 17006KT 10SM FEW180 SCT250 29/24 A3001 RMK AO2 SLP161 T02940244
KIAH 200453Z 17005KT 10SM FEW180 FEW250 29/24 A3001 RMK AO2 SLP160 T02890244
KIAH 200553Z 19004KT 10SM FEW250 28/24 A2999 RMK AO2 SLP153 T02830244 10317 20283 403720256 50000
KIAH 200653Z 18003KT 10SM FEW250 28/24 A2998 RMK AO2 SLP152 T02830244
KIAH 200753Z 19003KT 10SM FEW250 28/24 A2998 RMK AO2 SLP151 T02780244
KIAH 200853Z 18004KT 10SM FEW250 27/24 A2999 RMK AO2 SLP154 T02670244 53001
KIAH 200953Z 00000KT 8SM FEW250 27/24 A2999 RMK AO2 SLP153 T02720244
KIAH 201053Z 00000KT 9SM FEW250 26/24 A3000 RMK AO2 SLP156 T02610244
KIAH 201153Z COR 00000KT 7SM FEW020 FEW250 26/24 A3002 RMK AO2 SLP164 T02610244 10289 20256 53010
KIAH 201253Z 00000KT 7SM FEW010 SCT250 27/25 A3003 RMK AO2 SLP166 T02720250
KIAH 201353Z 00000KT 10SM SCT016 SCT250 31/25 A3004 RMK AO2 SLP169 T03110250
KIAH 201453Z 24005KT 10SM BKN020 BKN250 31/24 A3004 RMK AO2 SLP171 T03110239 51007



Page loaded:  15:54 UTC  |   08:54 AM Pacific  |   09:54 AM Mountain  |   10:54 AM Central  |   11:54 AM Eastern

 

ADVISORIES

FORECASTS

FORECASTS

OBSERVATIONS

USER TOOLS

ABOUT US